Time;durP1;ratioP1;P1;durP2;ratioP2;P2;SDS_P1;SDS_P2;PMS_P1;PMS_P2;Temp;Humidity;BMP_temperature;BMP_pressure;BME280_temperature;BME280_humidity;BME280_pressure;Samples;Min_cycle;Max_cycle;Signal;HPM_P1;HPM_P2
2022/10/19 00:02:16;;;;;;;;;;;;;;;-144.43;100.00;67396.00;4991230;28;20375;-65
2022/10/19 00:04:43;;;;;;;;;;;;;;;-144.43;100.00;67396.00;4988974;28;19918;-66
2022/10/19 00:07:09;;;;;;;;;;;;;;;-144.43;100.00;67396.00;4989710;28;19968;-66
2022/10/19 00:09:35;;;;;;;;;;;;;;;-144.43;100.00;67396.00;4989398;28;19922;-65
2022/10/19 00:12:02;;;;;;;;;;;;;;;-144.43;100.00;67396.00;4988134;28;19925;-64
2022/10/19 00:14:28;;;;;;;;;;;;;;;-144.43;100.00;67396.00;4991341;28;19976;-63
2022/10/19 00:16:56;;;;;;;;;;;;;;;-144.43;100.00;67396.00;4987510;28;19929;-63
2022/10/19 00:19:24;;;;;;;;;;;;;;;-144.43;100.00;67396.00;4989327;28;19982;-63
2022/10/19 00:21:51;;;;;;;;;;;;;;;-144.43;100.00;67396.00;4988187;28;20029;-62
2022/10/19 00:24:17;;;;;;;;;;;;;;;-144.43;100.00;67396.00;4985820;28;19934;-64
2022/10/19 00:26:44;;;;;;;;;;;;;;;-144.43;100.00;67396.00;4987206;28;19917;-64
2022/10/19 00:29:11;;;;;;;;;;;;;;;-144.43;100.00;67396.00;4987356;28;19921;-64
2022/10/19 00:31:37;;;;;;;;;;;;;;;-144.43;100.00;67396.00;4987644;28;19925;-64
2022/10/19 00:34:04;;;;;;;;;;;;;;;-144.43;100.00;67396.00;4990004;28;20375;-64
2022/10/19 00:36:35;;;;;;;;;;;;;;;-144.43;100.00;67396.00;4987911;28;19947;-64
2022/10/19 00:39:05;;;;;;;;;;;;;;;-144.43;100.00;67396.00;4989857;28;19922;-64
2022/10/19 00:41:33;;;;;;;;;;;;;;;-144.43;100.00;67396.00;4986552;28;19921;-65
2022/10/19 00:44:01;;;;;;;;;;;;;;;-144.43;100.00;67396.00;4989206;28;20137;-65
2022/10/19 00:46:29;;;;;;;;;;;;;;;-144.43;100.00;67396.00;4988834;28;19968;-64
2022/10/19 00:49:01;;;;;;;;;;;;;;;-144.43;100.00;67396.00;4985009;28;20036;-65
2022/10/19 00:51:27;;;;;;;;;;;;;;;-144.43;100.00;67396.00;4987753;28;20348;-65
2022/10/19 00:53:55;;;;;;;;;;;;;;;-144.43;100.00;67396.00;4974703;28;19998;-66
2022/10/19 00:56:22;;;;;;;;;;;;;;;-144.43;100.00;67396.00;4986443;28;19953;-66
2022/10/19 00:58:48;;;;;;;;;;;;;;;-144.43;100.00;67396.00;4984618;28;20558;-65
2022/10/19 01:01:16;;;;;;;;;;;;;;;-144.43;100.00;67396.00;4984590;28;19922;-65
2022/10/19 01:03:43;;;;;;;;;;;;;;;-144.43;100.00;67396.00;4986508;28;19922;-66
2022/10/19 01:06:12;;;;;;;;;;;;;;;-144.43;100.00;67396.00;4986167;28;20104;-64
2022/10/19 01:08:39;;;;;;;;;;;;;;;-144.43;100.00;67396.00;4987727;28;19922;-64
2022/10/19 01:11:23;;;;;;;;;;;;;;;-144.43;100.00;67396.00;4982002;28;19930;-64
2022/10/19 01:13:58;;;;;;;;;;;;;;;-144.43;100.00;67396.00;4987396;28;19967;-65
2022/10/19 01:16:43;;;;;;;;;;;;;;;-144.43;100.00;67396.00;4984166;28;19922;-64
2022/10/19 01:19:42;;;;;;;;;;;;;;;-144.43;100.00;67396.00;4984405;28;19983;-64
2022/10/19 01:22:21;;;;;;;;;;;;;;;-144.43;100.00;67396.00;4987601;28;20032;-64
2022/10/19 01:24:50;;;;;;;;;;;;;;;-144.43;100.00;67396.00;4988536;28;19921;-64
2022/10/19 01:27:16;;;;;;;;;;;;;;;-144.43;100.00;67396.00;4987045;28;19990;-64
2022/10/19 01:29:52;;;;;;;;;;;;;;;-144.43;100.00;67396.00;4984648;28;19922;-64
2022/10/19 01:32:23;;;;;;;;;;;;;;;-144.43;100.00;67396.00;4988896;28;19926;-64
2022/10/19 01:35:09;;;;;;;;;;;;;;;-144.43;100.00;67396.00;4985036;28;19921;-64
2022/10/19 01:37:45;;;;;;;;;;;;;;;-144.43;100.00;67396.00;4988415;28;20276;-63
2022/10/19 01:40:21;;;;;;;;;;;;;;;-144.43;100.00;67396.00;4984450;28;20009;-63
2022/10/19 01:42:57;;;;;;;;;;;;;;;-144.43;100.00;67396.00;4984661;28;20323;-63
2022/10/19 01:45:30;;;;;;;;;;;;;;;-144.43;100.00;67396.00;4986148;28;20055;-64
2022/10/19 01:48:04;;;;;;;;;;;;;;;-144.43;100.00;67396.00;4985508;28;19922;-65
2022/10/19 01:50:33;;;;;;;;;;;;;;;-144.43;100.00;67396.00;4987551;28;20026;-64
2022/10/19 01:53:02;;;;;;;;;;;;;;;-144.43;100.00;67396.00;4986005;28;20028;-63
2022/10/19 01:55:29;;;;;;;;;;;;;;;-144.43;100.00;67396.00;4987311;28;19929;-65
2022/10/19 01:58:01;;;;;;;;;;;;;;;-144.43;100.00;67396.00;4988887;28;19967;-64
2022/10/19 02:00:30;;;;;;;;;;;;;;;-144.43;100.00;67396.00;4986537;28;19922;-64
2022/10/19 02:02:57;;;;;;;;;;;;;;;-144.43;100.00;67396.00;4989461;28;19918;-64
2022/10/19 02:05:27;;;;;;;;;;;;;;;-144.43;100.00;67396.00;4989777;28;20474;-64
2022/10/19 02:08:05;;;;;;;;;;;;;;;-144.43;100.00;67396.00;4989448;28;20432;-64
2022/10/19 02:10:33;;;;;;;;;;;;;;;-144.43;100.00;67396.00;4986291;28;19952;-64
2022/10/19 02:13:01;;;;;;;;;;;;;;;-144.43;100.00;67396.00;4989364;28;19921;-64
2022/10/19 02:15:28;;;;;;;;;;;;;;;-144.43;100.00;67396.00;4990505;28;19925;-64
2022/10/19 02:17:58;;;;;;;;;;;;;;;-144.43;100.00;67396.00;4989373;28;19928;-65
2022/10/19 02:20:25;;;;;;;;;;;;;;;-144.43;100.00;67396.00;4986171;28;20325;-64
2022/10/19 02:22:51;;;;;;;;;;;;;;;-144.43;100.00;67396.00;4990621;28;19928;-64
2022/10/19 02:25:18;;;;;;;;;;;;;;;-144.43;100.00;67396.00;4988827;28;21383;-64
2022/10/19 02:27:44;;;;;;;;;;;;;;;-144.43;100.00;67396.00;4986625;28;20326;-65
2022/10/19 02:30:13;;;;;;;;;;;;;;;-144.43;100.00;67396.00;4988836;28;19926;-64
2022/10/19 02:32:39;;;;;;;;;;;;;;;-144.43;100.00;67396.00;4988724;28;20011;-64
2022/10/19 02:35:06;;;;;;;;;;;;;;;-144.43;100.00;67396.00;4989037;28;20287;-63
2022/10/19 02:37:32;;;;;;;;;;;;;;;-144.43;100.00;67396.00;4988852;28;20357;-65
2022/10/19 02:39:59;;;;;;;;;;;;;;;-144.43;100.00;67396.00;4988840;28;19963;-64
2022/10/19 02:42:33;;;;;;;;;;;;;;;-144.43;100.00;67396.00;4989028;28;19961;-66
2022/10/19 02:45:06;;;;;;;;;;;;;;;-144.43;100.00;67396.00;4988367;28;19926;-66
2022/10/19 02:47:37;;;;;;;;;;;;;;;-144.43;100.00;67396.00;4973724;28;20448;-66
2022/10/19 02:50:04;;;;;;;;;;;;;;;-144.43;100.00;67396.00;5096622;28;19961;-66
2022/10/19 02:52:31;;;;;;;;;;;;;;;-144.43;100.00;67396.00;4989594;28;20037;-64
2022/10/19 02:54:57;;;;;;;;;;;;;;;-144.43;100.00;67396.00;5004570;28;20016;-64
2022/10/19 02:57:24;;;;;;;;;;;;;;;-144.43;100.00;67396.00;4990560;28;20290;-64
2022/10/19 02:59:51;;;;;;;;;;;;;;;-144.43;100.00;67396.00;5003121;28;19959;-64
2022/10/19 03:02:18;;;;;;;;;;;;;;;-144.43;100.00;67396.00;5001691;28;19918;-64
2022/10/19 03:04:45;;;;;;;;;;;;;;;-144.43;100.00;67396.00;4997135;28;19928;-64
2022/10/19 03:07:13;;;;;;;;;;;;;;;-144.43;100.00;67396.00;5006366;28;20024;-64
2022/10/19 03:09:40;;;;;;;;;;;;;;;-144.43;100.00;67396.00;4996446;28;19932;-65
2022/10/19 03:12:06;;;;;;;;;;;;;;;-144.43;100.00;67396.00;5002627;28;19961;-64
2022/10/19 03:14:33;;;;;;;;;;;;;;;-144.43;100.00;67396.00;5005499;28;19947;-64
2022/10/19 03:16:59;;;;;;;;;;;;;;;-144.43;100.00;67396.00;4996524;28;19964;-64
2022/10/19 03:19:25;;;;;;;;;;;;;;;-144.43;100.00;67396.00;5008991;28;20005;-64
2022/10/19 03:21:51;;;;;;;;;;;;;;;-144.43;100.00;67396.00;4998893;28;20383;-64
2022/10/19 03:24:18;;;;;;;;;;;;;;;-144.43;100.00;67396.00;5001821;28;19922;-64
2022/10/19 03:26:44;;;;;;;;;;;;;;;-144.43;100.00;67396.00;5006587;28;20393;-64
2022/10/19 03:29:10;;;;;;;;;;;;;;;-144.43;100.00;67396.00;4995903;28;20323;-64
2022/10/19 03:31:36;;;;;;;;;;;;;;;-144.43;100.00;67396.00;5007297;28;19925;-64
2022/10/19 03:34:03;;;;;;;;;;;;;;;-144.43;100.00;67396.00;5000737;28;19917;-65
2022/10/19 03:36:30;;;;;;;;;;;;;;;-144.43;100.00;67396.00;4999989;28;20071;-65
2022/10/19 03:38:58;;;;;;;;;;;;;;;-144.43;100.00;67396.00;5008177;28;20436;-64
2022/10/19 03:41:26;;;;;;;;;;;;;;;-144.43;100.00;67396.00;4995802;28;19921;-65
2022/10/19 03:43:52;;;;;;;;;;;;;;;-144.43;100.00;67396.00;5005055;28;19931;-64
2022/10/19 03:46:19;;;;;;;;;;;;;;;-144.43;100.00;67396.00;5002877;28;20024;-64
2022/10/19 03:48:45;;;;;;;;;;;;;;;-144.43;100.00;67396.00;4998064;28;19938;-64
2022/10/19 03:51:16;;;;;;;;;;;;;;;-144.43;100.00;67396.00;4999876;28;20337;-64
2022/10/19 03:53:42;;;;;;;;;;;;;;;-144.43;100.00;67396.00;5006080;28;20248;-64
2022/10/19 03:56:16;;;;;;;;;;;;;;;-144.43;100.00;67396.00;5001293;28;19918;-64
2022/10/19 03:58:43;;;;;;;;;;;;;;;-144.43;100.00;67396.00;5099431;27;19922;-64
2022/10/19 04:01:11;;;;;;;;;;;;;;;-144.43;100.00;67396.00;5008347;28;19924;-64
2022/10/19 04:03:37;;;;;;;;;;;;;;;-144.43;100.00;67396.00;4996847;28;20272;-64
2022/10/19 04:06:05;;;;;;;;;;;;;;;-144.43;100.00;67396.00;5001878;28;19918;-65
2022/10/19 04:08:31;;;;;;;;;;;;;;;-144.43;100.00;67396.00;5004213;28;20358;-64
2022/10/19 04:10:58;;;;;;;;;;;;;;;-144.43;100.00;67396.00;4995223;28;19921;-64
2022/10/19 04:13:25;;;;;;;;;;;;;;;-144.43;100.00;67396.00;5006971;28;19976;-64
2022/10/19 04:15:51;;;;;;;;;;;;;;;-144.43;100.00;67396.00;4998286;28;19978;-64
2022/10/19 04:18:17;;;;;;;;;;;;;;;-144.43;100.00;67396.00;5001374;28;20396;-64
2022/10/19 04:20:43;;;;;;;;;;;;;;;-144.43;100.00;67396.00;4998142;28;19962;-64
2022/10/19 04:23:09;;;;;;;;;;;;;;;-144.43;100.00;67396.00;5007961;28;19922;-64
2022/10/19 04:25:36;;;;;;;;;;;;;;;-144.43;100.00;67396.00;4994975;28;19917;-64
2022/10/19 04:28:02;;;;;;;;;;;;;;;-144.43;100.00;67396.00;5003524;28;20012;-65
2022/10/19 04:30:28;;;;;;;;;;;;;;;-144.43;100.00;67396.00;5002355;28;19918;-65
2022/10/19 04:32:55;;;;;;;;;;;;;;;-144.43;100.00;67396.00;4995947;28;19922;-65
2022/10/19 04:35:21;;;;;;;;;;;;;;;-144.43;100.00;67396.00;5007506;28;19921;-65
2022/10/19 04:37:47;;;;;;;;;;;;;;;-144.43;100.00;67396.00;4997470;28;20397;-64
2022/10/19 04:40:14;;;;;;;;;;;;;;;-144.43;100.00;67396.00;5000157;28;19921;-65
2022/10/19 04:42:40;;;;;;;;;;;;;;;-144.43;100.00;67396.00;5004991;28;19965;-64
2022/10/19 04:45:06;;;;;;;;;;;;;;;-144.43;100.00;67396.00;4994901;28;19968;-64
2022/10/19 04:47:32;;;;;;;;;;;;;;;-144.43;100.00;67396.00;5006848;28;19922;-65
2022/10/19 04:49:59;;;;;;;;;;;;;;;-144.43;100.00;67396.00;4997856;28;19981;-64
2022/10/19 04:52:25;;;;;;;;;;;;;;;-144.43;100.00;67396.00;4992244;28;19922;-64
2022/10/19 04:54:51;;;;;;;;;;;;;;;-144.43;100.00;67396.00;5006212;28;19922;-64
2022/10/19 04:57:18;;;;;;;;;;;;;;;-144.43;100.00;67396.00;4994767;28;19921;-64
2022/10/19 04:59:46;;;;;;;;;;;;;;;-144.43;100.00;67396.00;5003773;28;19917;-65
2022/10/19 05:02:12;;;;;;;;;;;;;;;-144.43;100.00;67396.00;4999689;28;20316;-64
2022/10/19 05:04:38;;;;;;;;;;;;;;;-144.43;100.00;67396.00;4997733;28;19921;-65
2022/10/19 05:07:05;;;;;;;;;;;;;;;-144.43;100.00;67396.00;5007283;28;19922;-65
2022/10/19 05:09:31;;;;;;;;;;;;;;;-144.43;100.00;67396.00;4993827;28;19921;-64
2022/10/19 05:11:57;;;;;;;;;;;;;;;-144.43;100.00;67396.00;5003112;28;19928;-65
2022/10/19 05:14:23;;;;;;;;;;;;;;;-144.43;100.00;67396.00;4998126;28;19926;-64
2022/10/19 05:16:50;;;;;;;;;;;;;;;-144.43;100.00;67396.00;4990894;28;19917;-65
2022/10/19 05:19:16;;;;;;;;;;;;;;;-144.43;100.00;67396.00;5007406;28;19941;-64
2022/10/19 05:21:42;;;;;;;;;;;;;;;-144.43;100.00;67396.00;4988730;28;19961;-65
2022/10/19 05:24:10;;;;;;;;;;;;;;;-144.43;100.00;67396.00;4990662;28;20020;-64
2022/10/19 05:26:37;;;;;;;;;;;;;;;-144.43;100.00;67396.00;5003727;28;20050;-64
2022/10/19 05:29:03;;;;;;;;;;;;;;;-144.43;100.00;67396.00;4992890;28;19967;-64
2022/10/19 05:31:30;;;;;;;;;;;;;;;-144.43;100.00;67396.00;5006482;28;19969;-64
2022/10/19 05:33:57;;;;;;;;;;;;;;;-144.43;100.00;67396.00;4998242;28;19940;-64
2022/10/19 05:36:27;;;;;;;;;;;;;;;-144.43;100.00;67396.00;5005950;28;19960;-64
2022/10/19 05:38:55;;;;;;;;;;;;;;;-144.43;100.00;67396.00;4994977;28;19928;-64
2022/10/19 05:41:22;;;;;;;;;;;;;;;-144.43;100.00;67396.00;5006875;28;20031;-65
2022/10/19 05:43:53;;;;;;;;;;;;;;;-144.43;100.00;67396.00;4996824;28;20375;-65
2022/10/19 05:46:19;;;;;;;;;;;;;;;-144.43;100.00;67396.00;4999550;28;20017;-63
2022/10/19 05:48:46;;;;;;;;;;;;;;;-144.43;100.00;67396.00;5004647;28;19922;-64
2022/10/19 05:51:13;;;;;;;;;;;;;;;-144.43;100.00;67396.00;4991753;28;19918;-63
2022/10/19 05:53:40;;;;;;;;;;;;;;;-144.43;100.00;67396.00;4990282;28;19922;-62
2022/10/19 05:56:07;;;;;;;;;;;;;;;-144.43;100.00;67396.00;4990492;28;20016;-63
2022/10/19 05:58:34;;;;;;;;;;;;;;;-144.43;100.00;67396.00;4991119;28;19922;-62
2022/10/19 06:01:01;;;;;;;;;;;;;;;-144.43;100.00;67396.00;4990968;28;20341;-63
2022/10/19 06:03:27;;;;;;;;;;;;;;;-144.43;100.00;67396.00;4990533;28;19925;-63
2022/10/19 06:05:54;;;;;;;;;;;;;;;-144.43;100.00;67396.00;4990332;28;20016;-63
2022/10/19 06:08:22;;;;;;;;;;;;;;;-144.43;100.00;67396.00;4990278;28;19922;-63
2022/10/19 06:10:49;;;;;;;;;;;;;;;-144.43;100.00;67396.00;4990499;28;19918;-64
2022/10/19 06:13:16;;;;;;;;;;;;;;;-144.43;100.00;67396.00;4991416;28;19949;-62
2022/10/19 06:15:43;;;;;;;;;;;;;;;-144.43;100.00;67396.00;4989543;28;20399;-62
2022/10/19 06:18:10;;;;;;;;;;;;;;;-144.43;100.00;67396.00;4991980;28;19972;-63
2022/10/19 06:20:37;;;;;;;;;;;;;;;-144.43;100.00;67396.00;4991068;28;19945;-62
2022/10/19 06:23:04;;;;;;;;;;;;;;;-144.43;100.00;67396.00;4989481;28;19922;-63
2022/10/19 06:25:31;;;;;;;;;;;;;;;-144.43;100.00;67396.00;4993370;28;19924;-63
2022/10/19 06:27:58;;;;;;;;;;;;;;;-144.43;100.00;67396.00;4991723;28;20074;-62
2022/10/19 06:30:24;;;;;;;;;;;;;;;-144.43;100.00;67396.00;4991749;28;20016;-61
2022/10/19 15:09:28;;;;;;;;;;;;;;;-144.43;100.00;67396.00;5087743;28;19932;-63
2022/10/19 15:12:05;;;;;;;;;;;;;;;-144.43;100.00;67396.00;5112406;27;19919;-63
2022/10/19 15:14:32;;;;;;;;;;;;;;;-144.43;100.00;67396.00;5117829;27;19920;-62
2022/10/19 15:17:01;;;;;;;;;;;;;;;-144.43;100.00;67396.00;5128679;27;20080;-63
2022/10/19 15:19:30;;;;;;;;;;;;;;;-144.43;100.00;67396.00;5126550;27;19926;-63
2022/10/19 15:22:05;;;;;;;;;;;;;;;-144.43;100.00;67396.00;5121436;27;19970;-63
2022/10/19 15:24:32;;;;;;;;;;;;;;;-144.43;100.00;67396.00;5132732;27;20006;-63
2022/10/19 15:27:07;;;;;;;;;;;;;;;-144.43;100.00;67396.00;5122168;27;19915;-62
2022/10/19 15:29:33;;;;;;;;;;;;;;;-144.43;100.00;67396.00;5124802;27;19927;-63
2022/10/19 15:32:27;;;;;;;;;;;;;;;-144.43;100.00;67396.00;5112486;27;20337;-63
2022/10/19 15:34:53;;;;;;;;;;;;;;;-144.43;100.00;67396.00;5084872;28;19959;-63
2022/10/19 15:37:21;;;;;;;;;;;;;;;-144.43;100.00;67396.00;5125093;27;19916;-63
2022/10/19 15:39:48;;;;;;;;;;;;;;;-144.43;100.00;67396.00;5122502;27;19970;-63
2022/10/19 15:42:22;;;;;;;;;;;;;;;-144.43;100.00;67396.00;5132416;27;19963;-63
2022/10/19 15:44:48;;;;;;;;;;;;;;;-144.43;100.00;67396.00;5120424;27;19972;-63
2022/10/19 15:47:15;;;;;;;;;;;;;;;-144.43;100.00;67396.00;5127103;27;19918;-63
2022/10/19 15:49:41;;;;;;;;;;;;;;;-144.43;100.00;67396.00;5128014;27;20014;-63
2022/10/19 15:52:24;;;;;;;;;;;;;;;-144.43;100.00;67396.00;5101564;28;19912;-63
2022/10/19 15:54:52;;;;;;;;;;;;;;;-144.43;100.00;67396.00;5100225;28;19973;-63
2022/10/19 15:57:24;;;;;;;;;;;;;;;-144.43;100.00;67396.00;5124496;27;19926;-63
2022/10/19 15:59:51;;;;;;;;;;;;;;;-144.43;100.00;67396.00;5121679;27;19920;-63
2022/10/19 16:02:17;;;;;;;;;;;;;;;-144.43;100.00;67396.00;5131851;27;20364;-63
2022/10/19 16:04:44;;;;;;;;;;;;;;;-144.43;100.00;67396.00;5119470;27;19928;-63
2022/10/19 16:07:15;;;;;;;;;;;;;;;-144.43;100.00;67396.00;5126471;27;19920;-63
2022/10/19 16:09:41;;;;;;;;;;;;;;;-144.43;100.00;67396.00;5127667;27;20391;-63
2022/10/19 16:12:11;;;;;;;;;;;;;;;-144.43;100.00;67396.00;5119136;27;19931;-63
2022/10/19 16:14:37;;;;;;;;;;;;;;;-144.43;100.00;67396.00;5131892;27;19951;-63
2022/10/19 16:17:03;;;;;;;;;;;;;;;-144.43;100.00;67396.00;5121911;27;19942;-63
2022/10/19 16:19:30;;;;;;;;;;;;;;;-144.43;100.00;67396.00;5124315;27;19924;-63
2022/10/19 16:21:56;;;;;;;;;;;;;;;-144.43;100.00;67396.00;5129428;27;19916;-63
2022/10/19 16:24:22;;;;;;;;;;;;;;;-144.43;100.00;67396.00;5118121;27;19919;-63
2022/10/19 16:26:48;;;;;;;;;;;;;;;-144.43;100.00;67396.00;5129981;27;19916;-62
2022/10/19 16:29:15;;;;;;;;;;;;;;;-144.43;100.00;67396.00;5123636;27;19923;-63
2022/10/19 16:31:41;;;;;;;;;;;;;;;-144.43;100.00;67396.00;5104295;28;19927;-63
2022/10/19 16:34:07;;;;;;;;;;;;;;;-144.43;100.00;67396.00;5130797;27;19919;-63
2022/10/19 16:36:33;;;;;;;;;;;;;;;-144.43;100.00;67396.00;5117918;27;19955;-63
2022/10/19 16:39:00;;;;;;;;;;;;;;;-144.43;100.00;67396.00;5127841;27;20384;-63
2022/10/19 16:41:26;;;;;;;;;;;;;;;-144.43;100.00;67396.00;5124824;27;19919;-63
2022/10/19 16:43:56;;;;;;;;;;;;;;;-144.43;100.00;67396.00;5120679;27;20270;-63
2022/10/19 16:46:23;;;;;;;;;;;;;;;-144.43;100.00;67396.00;5131283;27;19920;-63
2022/10/19 16:48:49;;;;;;;;;;;;;;;-144.43;100.00;67396.00;5119405;27;19923;-63
2022/10/19 16:51:18;;;;;;;;;;;;;;;-144.43;100.00;67396.00;5125800;27;19926;-63
2022/10/19 16:53:44;;;;;;;;;;;;;;;-144.43;100.00;67396.00;5127334;27;19919;-63
2022/10/19 16:56:12;;;;;;;;;;;;;;;-144.43;100.00;67396.00;5118004;27;19977;-63
2022/10/19 16:58:39;;;;;;;;;;;;;;;-144.43;100.00;67396.00;5097265;28;19916;-63
2022/10/19 17:01:06;;;;;;;;;;;;;;;-144.43;100.00;67396.00;5121568;27;19985;-63
2022/10/19 17:03:32;;;;;;;;;;;;;;;-144.43;100.00;67396.00;5123167;27;20307;-63
2022/10/19 17:06:01;;;;;;;;;;;;;;;-144.43;100.00;67396.00;5129655;27;19919;-63
2022/10/19 17:08:27;;;;;;;;;;;;;;;-144.43;100.00;67396.00;5117086;27;20397;-63
2022/10/19 17:10:53;;;;;;;;;;;;;;;-144.43;100.00;67396.00;5113767;27;20017;-63
2022/10/19 17:13:19;;;;;;;;;;;;;;;-144.43;100.00;67396.00;5123450;27;20296;-63
2022/10/19 17:15:46;;;;;;;;;;;;;;;-144.43;100.00;67396.00;5121155;27;20002;-63
2022/10/19 17:18:12;;;;;;;;;;;;;;;-144.43;100.00;67396.00;5125843;27;19920;-64
2022/10/19 17:20:38;;;;;;;;;;;;;;;-144.43;100.00;67396.00;5095797;28;19919;-64
2022/10/19 17:23:04;;;;;;;;;;;;;;;-144.43;100.00;67396.00;5119375;27;20014;-64
2022/10/19 17:25:31;;;;;;;;;;;;;;;-144.43;100.00;67396.00;5123126;27;19985;-64
2022/10/19 17:27:57;;;;;;;;;;;;;;;-144.43;100.00;67396.00;5128337;27;20284;-63
2022/10/19 17:30:23;;;;;;;;;;;;;;;-144.43;100.00;67396.00;5115856;27;19942;-64
2022/10/19 17:32:49;;;;;;;;;;;;;;;-144.43;100.00;67396.00;5118673;27;19923;-63
2022/10/19 17:35:16;;;;;;;;;;;;;;;-144.43;100.00;67396.00;5125355;27;20468;-65
2022/10/19 17:37:42;;;;;;;;;;;;;;;-144.43;100.00;67396.00;5126544;27;19923;-65
2022/10/19 17:40:08;;;;;;;;;;;;;;;-144.43;100.00;67396.00;5116947;27;19955;-65
2022/10/19 17:42:35;;;;;;;;;;;;;;;-144.43;100.00;67396.00;5098468;27;19980;-65
2022/10/19 17:45:01;;;;;;;;;;;;;;;-144.43;100.00;67396.00;5126628;27;19923;-64
2022/10/19 17:47:29;;;;;;;;;;;;;;;-144.43;100.00;67396.00;5123872;27;19970;-65
2022/10/19 17:49:55;;;;;;;;;;;;;;;-144.43;100.00;67396.00;5119309;27;19920;-64
2022/10/19 17:52:21;;;;;;;;;;;;;;;-144.43;100.00;67396.00;5130221;27;19915;-64
2022/10/19 17:54:48;;;;;;;;;;;;;;;-144.43;100.00;67396.00;5118101;27;20265;-64
2022/10/19 17:57:14;;;;;;;;;;;;;;;-144.43;100.00;67396.00;5125027;27;19923;-64
2022/10/19 17:59:40;;;;;;;;;;;;;;;-144.43;100.00;67396.00;5125564;27;20005;-64
2022/10/19 18:02:07;;;;;;;;;;;;;;;-144.43;100.00;67396.00;5117610;28;19923;-64
2022/10/19 18:04:34;;;;;;;;;;;;;;;-144.43;100.00;67396.00;5129850;28;20380;-64
2022/10/19 18:07:00;;;;;;;;;;;;;;;-144.43;100.00;67396.00;5119905;28;19983;-64
2022/10/19 18:09:26;;;;;;;;;;;;;;;-144.43;100.00;67396.00;5122959;28;20005;-64
2022/10/19 18:11:53;;;;;;;;;;;;;;;-144.43;100.00;67396.00;5127388;28;19939;-64
2022/10/19 18:14:19;;;;;;;;;;;;;;;-144.43;100.00;67396.00;5116634;28;19931;-64
2022/10/19 18:16:46;;;;;;;;;;;;;;;-144.43;100.00;67396.00;5128702;28;20014;-64
2022/10/19 18:19:13;;;;;;;;;;;;;;;-144.43;100.00;67396.00;5121291;28;19923;-64
2022/10/19 18:21:40;;;;;;;;;;;;;;;-144.43;100.00;67396.00;5120992;28;20320;-64
2022/10/19 18:24:07;;;;;;;;;;;;;;;-144.43;100.00;67396.00;5129230;28;19961;-64
2022/10/19 18:26:34;;;;;;;;;;;;;;;-144.43;100.00;67396.00;5115967;28;20317;-64
2022/10/19 18:29:02;;;;;;;;;;;;;;;-144.43;100.00;67396.00;5126439;28;19916;-64
2022/10/19 18:31:29;;;;;;;;;;;;;;;-144.43;100.00;67396.00;5127828;27;19916;-64
2022/10/19 18:33:59;;;;;;;;;;;;;;;-144.43;100.00;67396.00;5122767;27;19954;-64
2022/10/19 18:36:25;;;;;;;;;;;;;;;-144.43;100.00;67396.00;5133888;27;19919;-64
2022/10/19 18:38:52;;;;;;;;;;;;;;;-144.43;100.00;67396.00;5122241;27;19919;-64
2022/10/19 18:41:19;;;;;;;;;;;;;;;-144.43;100.00;67396.00;5128048;27;20373;-64
2022/10/19 18:43:50;;;;;;;;;;;;;;;-144.43;100.00;67396.00;5130043;27;19923;-64
2022/10/19 18:46:17;;;;;;;;;;;;;;;-144.43;100.00;67396.00;5120218;27;19919;-64
2022/10/19 18:48:43;;;;;;;;;;;;;;;-144.43;100.00;67396.00;5132823;27;19977;-64
2022/10/19 18:51:09;;;;;;;;;;;;;;;-144.43;100.00;67396.00;5125029;27;19968;-64
2022/10/19 18:53:36;;;;;;;;;;;;;;;-144.43;100.00;67396.00;5125392;27;19987;-64
2022/10/19 18:56:03;;;;;;;;;;;;;;;-144.43;100.00;67396.00;5132360;27;20011;-64
2022/10/19 18:58:30;;;;;;;;;;;;;;;-144.43;100.00;67396.00;5119790;27;20395;-64
2022/10/19 19:01:07;;;;;;;;;;;;;;;-144.43;100.00;67396.00;5130408;27;20384;-64
2022/10/19 19:03:34;;;;;;;;;;;;;;;-144.43;100.00;67396.00;5127979;27;19915;-64
2022/10/19 19:06:02;;;;;;;;;;;;;;;-144.43;100.00;67396.00;5121703;27;19916;-64
2022/10/19 19:08:28;;;;;;;;;;;;;;;-144.43;100.00;67396.00;5133255;27;20010;-65
2022/10/19 19:10:55;;;;;;;;;;;;;;;-144.43;100.00;67396.00;5122181;27;20303;-64
2022/10/19 19:13:21;;;;;;;;;;;;;;;-144.43;100.00;67396.00;5127044;27;20353;-64
2022/10/19 19:16:06;;;;;;;;;;;;;;;-144.43;100.00;67396.00;5129828;27;19915;-64
2022/10/19 19:18:33;;;;;;;;;;;;;;;-144.43;100.00;67396.00;5101563;27;19928;-65
2022/10/19 19:20:59;;;;;;;;;;;;;;;-144.43;100.00;67396.00;5129800;27;19915;-65
2022/10/19 19:23:26;;;;;;;;;;;;;;;-144.43;100.00;67396.00;5126575;27;19920;-65
2022/10/19 19:25:52;;;;;;;;;;;;;;;-144.43;100.00;67396.00;5122377;27;19926;-65
2022/10/19 19:28:18;;;;;;;;;;;;;;;-144.43;100.00;67396.00;5133015;27;19964;-65
2022/10/19 19:30:45;;;;;;;;;;;;;;;-144.43;100.00;67396.00;5120571;27;19987;-65
2022/10/19 19:33:11;;;;;;;;;;;;;;;-144.43;100.00;67396.00;5128236;27;20018;-66
2022/10/19 19:35:44;;;;;;;;;;;;;;;-144.43;100.00;67396.00;5127944;27;20380;-65
2022/10/19 19:38:11;;;;;;;;;;;;;;;-144.43;100.00;67396.00;5119458;27;19919;-66
2022/10/19 19:40:38;;;;;;;;;;;;;;;-144.43;100.00;67396.00;5097429;28;20018;-66
2022/10/19 19:43:04;;;;;;;;;;;;;;;-144.43;100.00;67396.00;5100859;27;20011;-63
2022/10/19 19:45:31;;;;;;;;;;;;;;;-144.43;100.00;67396.00;5104747;28;19965;-64
2022/10/19 19:47:57;;;;;;;;;;;;;;;-144.43;100.00;67396.00;5101769;28;19919;-63
2022/10/19 19:50:23;;;;;;;;;;;;;;;-144.43;100.00;67396.00;5103950;28;19989;-63
2022/10/19 19:52:50;;;;;;;;;;;;;;;-144.43;100.00;67396.00;5099988;28;19948;-66
2022/10/19 19:55:16;;;;;;;;;;;;;;;-144.43;100.00;67396.00;5101401;28;19916;-64
2022/10/19 19:57:42;;;;;;;;;;;;;;;-144.43;100.00;67396.00;5097071;28;19943;-65
2022/10/19 20:00:09;;;;;;;;;;;;;;;-144.43;100.00;67396.00;5106895;28;19916;-64
2022/10/19 20:02:38;;;;;;;;;;;;;;;-144.43;100.00;67396.00;5105639;27;19920;-65
2022/10/19 20:05:04;;;;;;;;;;;;;;;-144.43;100.00;67396.00;5098305;28;19927;-65
2022/10/19 20:07:30;;;;;;;;;;;;;;;-144.43;100.00;67396.00;5105204;28;19966;-65
2022/10/19 20:09:57;;;;;;;;;;;;;;;-144.43;100.00;67396.00;5103891;27;19920;-64
2022/10/19 20:12:23;;;;;;;;;;;;;;;-144.43;100.00;67396.00;5097318;28;19920;-64
2022/10/19 20:14:49;;;;;;;;;;;;;;;-144.43;100.00;67396.00;5099965;28;20327;-64
2022/10/19 20:17:22;;;;;;;;;;;;;;;-144.43;100.00;67396.00;5100479;28;20022;-64
2022/10/19 20:19:49;;;;;;;;;;;;;;;-144.43;100.00;67396.00;5106938;27;19920;-65
2022/10/19 20:22:15;;;;;;;;;;;;;;;-144.43;100.00;67396.00;5104724;28;19928;-65
2022/10/19 20:24:41;;;;;;;;;;;;;;;-144.43;100.00;67396.00;5108054;28;20277;-65
2022/10/19 20:27:08;;;;;;;;;;;;;;;-144.43;100.00;67396.00;5105260;28;19924;-65
2022/10/19 20:29:34;;;;;;;;;;;;;;;-144.43;100.00;67396.00;5104680;28;20034;-66
2022/10/19 20:32:00;;;;;;;;;;;;;;;-144.43;100.00;67396.00;5100431;28;20344;-66
2022/10/19 20:34:27;;;;;;;;;;;;;;;-144.43;100.00;67396.00;5097312;28;19920;-64
2022/10/19 20:36:53;;;;;;;;;;;;;;;-144.43;100.00;67396.00;5104620;28;20311;-64
2022/10/19 20:39:19;;;;;;;;;;;;;;;-144.43;100.00;67396.00;5099499;28;20385;-65
2022/10/19 20:41:45;;;;;;;;;;;;;;;-144.43;100.00;67396.00;5102765;28;19920;-65
2022/10/19 20:44:12;;;;;;;;;;;;;;;-144.43;100.00;67396.00;5108030;28;19954;-64
2022/10/19 20:46:38;;;;;;;;;;;;;;;-144.43;100.00;67396.00;5110178;28;19926;-65
2022/10/19 20:49:06;;;;;;;;;;;;;;;-144.43;100.00;67396.00;5103384;28;20003;-64
2022/10/19 20:51:35;;;;;;;;;;;;;;;-144.43;100.00;67396.00;5105322;28;20281;-66
2022/10/19 20:54:02;;;;;;;;;;;;;;;-144.43;100.00;67396.00;5107423;28;19920;-65
2022/10/19 20:56:30;;;;;;;;;;;;;;;-144.43;100.00;67396.00;5105392;28;19927;-65
2022/10/19 20:58:57;;;;;;;;;;;;;;;-144.43;100.00;67396.00;5102835;28;20278;-64